createdAt,value
2022-12-25T00:00:07.136Z,3.70
2022-12-25T00:00:20.984Z,3.60
2022-12-25T00:00:28.568Z,3.70
2022-12-25T00:00:39.686Z,3.80
2022-12-25T00:00:50.244Z,3.80
2022-12-25T00:01:01.193Z,3.80
2022-12-25T00:01:11.771Z,3.80
2022-12-25T00:01:22.746Z,3.70
2022-12-25T00:01:33.541Z,3.70
2022-12-25T00:01:44.619Z,3.70
2022-12-25T00:01:55.604Z,3.70
2022-12-25T00:02:06.387Z,3.50
2022-12-25T00:02:17.532Z,3.50
2022-12-25T00:02:28.670Z,3.50
2022-12-25T00:02:39.582Z,3.70
2022-12-25T00:02:50.206Z,3.90
2022-12-25T00:03:00.778Z,4.20
2022-12-25T00:03:11.763Z,3.80
2022-12-25T00:03:22.473Z,3.70
2022-12-25T00:03:33.088Z,3.50
2022-12-25T00:03:44.004Z,3.70
2022-12-25T00:03:54.673Z,3.60
2022-12-25T00:04:05.220Z,3.60
2022-12-25T00:04:16.113Z,3.70
2022-12-25T00:04:26.607Z,3.60
2022-12-25T00:04:37.575Z,3.80
2022-12-25T00:04:48.399Z,3.80
2022-12-25T00:04:58.933Z,3.90
2022-12-25T00:05:09.914Z,3.80
2022-12-25T00:05:20.704Z,3.80
2022-12-25T00:05:31.782Z,3.40
2022-12-25T00:05:42.750Z,3.30
2022-12-25T00:05:53.546Z,3.30
2022-12-25T00:06:04.613Z,3.50
2022-12-25T00:06:15.602Z,3.60
2022-12-25T00:06:26.390Z,3.60
2022-12-25T00:06:37.460Z,3.60
2022-12-25T00:06:48.450Z,3.50
2022-12-25T00:06:59.231Z,3.70
2022-12-25T00:07:10.296Z,3.60
2022-12-25T00:07:21.290Z,3.60
2022-12-25T00:07:32.087Z,3.40
2022-12-25T00:07:42.619Z,3.60
2022-12-25T00:07:53.611Z,3.50
2022-12-25T00:08:04.405Z,3.70
2022-12-25T00:08:15.478Z,3.50
2022-12-25T00:08:26.499Z,3.50
2022-12-25T00:08:37.262Z,3.40
2022-12-25T00:08:48.355Z,3.20
2022-12-25T00:08:59.316Z,3.30
2022-12-25T00:09:10.136Z,3.20
2022-12-25T00:09:21.172Z,3.30
2022-12-25T00:09:32.198Z,3.20
2022-12-25T00:09:42.996Z,3.10
2022-12-25T00:09:54.053Z,3.00
2022-12-25T00:10:05.048Z,3.00
2022-12-25T00:10:15.819Z,3.30
2022-12-25T00:10:26.915Z,3.20
2022-12-25T00:10:44.748Z,3.30
2022-12-25T00:10:49.864Z,3.10
2022-12-25T00:10:59.851Z,3.10
2022-12-25T00:11:10.863Z,2.90
2022-12-25T00:11:21.661Z,2.90
2022-12-25T00:11:32.186Z,2.90
2022-12-25T00:11:43.169Z,3.10
2022-12-25T00:11:53.959Z,3.10
2022-12-25T00:12:05.056Z,3.20
2022-12-25T00:12:16.073Z,3.20
2022-12-25T00:12:26.870Z,3.40
2022-12-25T00:12:37.420Z,3.10
2022-12-25T00:12:48.394Z,3.10
2022-12-25T00:12:59.195Z,3.10
2022-12-25T00:13:10.254Z,3.10
2022-12-25T00:13:21.249Z,3.10
2022-12-25T00:13:32.027Z,3.10
2022-12-25T00:13:43.098Z,3.00
2022-12-25T00:13:54.087Z,3.10
2022-12-25T00:14:04.879Z,3.10
2022-12-25T00:14:15.949Z,3.20
2022-12-25T00:14:26.962Z,3.20
2022-12-25T00:14:37.754Z,3.20
2022-12-25T00:14:48.800Z,3.00
2022-12-25T00:14:59.797Z,3.00
2022-12-25T00:15:10.582Z,2.80
2022-12-25T00:15:21.124Z,3.00
2022-12-25T00:15:32.102Z,3.00
2022-12-25T00:15:42.936Z,3.00
2022-12-25T00:15:54.021Z,3.00
2022-12-25T00:16:05.108Z,3.00
2022-12-25T00:16:15.963Z,2.90
2022-12-25T00:16:26.658Z,2.80
2022-12-25T00:16:37.242Z,2.90
2022-12-25T00:16:48.128Z,3.10
2022-12-25T00:16:58.696Z,3.20
2022-12-25T00:17:09.693Z,3.20
2022-12-25T00:17:20.470Z,2.70
2022-12-25T00:17:31.628Z,2.60
2022-12-25T00:17:42.600Z,2.60
2022-12-25T00:17:53.390Z,2.80
2022-12-25T00:18:04.476Z,2.90
2022-12-25T00:18:15.461Z,2.70
2022-12-25T00:18:26.240Z,2.60
2022-12-25T00:18:37.338Z,2.70
2022-12-25T00:18:48.363Z,2.70
2022-12-25T00:18:59.200Z,2.80
2022-12-25T00:19:09.706Z,2.80
2022-12-25T00:19:20.692Z,2.80
2022-12-25T00:19:31.477Z,2.50
2022-12-25T00:19:42.554Z,2.40
2022-12-25T00:19:53.571Z,2.40
2022-12-25T00:20:04.337Z,2.80
2022-12-25T00:20:15.407Z,2.90
2022-12-25T00:20:26.393Z,2.80
2022-12-25T00:20:37.183Z,2.50
2022-12-25T00:20:48.268Z,2.40
2022-12-25T00:20:59.252Z,2.30
2022-12-25T00:21:10.041Z,2.30
2022-12-25T00:21:21.088Z,2.40
2022-12-25T00:21:32.100Z,2.40
2022-12-25T00:21:42.878Z,2.30
2022-12-25T00:21:53.941Z,2.30
2022-12-25T00:22:04.931Z,2.50
2022-12-25T00:22:15.739Z,2.60
2022-12-25T00:22:26.261Z,2.60
2022-12-25T00:22:37.270Z,2.50
2022-12-25T00:22:48.090Z,2.20
2022-12-25T00:22:59.137Z,2.40
2022-12-25T00:23:10.109Z,2.50
2022-12-25T00:23:20.898Z,2.50
2022-12-25T00:23:31.975Z,2.40
2022-12-25T00:23:42.961Z,2.40
2022-12-25T00:23:53.771Z,2.40
2022-12-25T00:24:04.827Z,2.50
2022-12-25T00:24:15.832Z,2.40
2022-12-25T00:24:26.612Z,2.50
2022-12-25T00:24:37.693Z,2.50
2022-12-25T00:24:48.653Z,2.50
2022-12-25T00:24:59.438Z,2.30
2022-12-25T00:25:10.513Z,2.20
2022-12-25T00:25:21.515Z,2.10
2022-12-25T00:25:32.296Z,2.10
2022-12-25T00:25:43.359Z,2.30
2022-12-25T00:25:54.372Z,2.30
2022-12-25T00:26:05.176Z,2.20
2022-12-25T00:26:16.245Z,2.30
2022-12-25T00:26:27.209Z,2.30
2022-12-25T00:26:37.991Z,2.20
2022-12-25T00:26:49.094Z,2.10
2022-12-25T00:27:00.048Z,2.20
2022-12-25T00:27:10.840Z,2.20
2022-12-25T00:27:21.907Z,2.20
2022-12-25T00:27:32.896Z,2.10
2022-12-25T00:27:43.723Z,2.10
2022-12-25T00:27:54.245Z,2.30
2022-12-25T00:28:05.228Z,2.40
2022-12-25T00:28:16.016Z,2.40
2022-12-25T00:28:27.137Z,2.30
2022-12-25T00:28:38.119Z,2.20
2022-12-25T00:28:48.898Z,2.30
2022-12-25T00:28:59.962Z,2.20
2022-12-25T00:29:10.967Z,2.30
2022-12-25T00:29:21.749Z,2.30
2022-12-25T00:29:32.875Z,2.50
2022-12-25T00:29:43.829Z,2.20
2022-12-25T00:29:54.635Z,2.30
2022-12-25T00:30:05.698Z,2.20
2022-12-25T00:30:16.740Z,2.40
2022-12-25T00:30:27.492Z,2.30
2022-12-25T00:30:38.546Z,2.30
2022-12-25T00:30:49.538Z,2.20
2022-12-25T00:31:00.363Z,2.20
2022-12-25T00:31:11.463Z,2.30
2022-12-25T00:31:22.552Z,2.10
2022-12-25T00:31:33.540Z,1.90
2022-12-25T00:31:44.238Z,2.10
2022-12-25T00:31:54.742Z,2.40
2022-12-25T00:32:05.512Z,2.50
2022-12-25T00:32:16.577Z,2.20
2022-12-25T00:32:27.556Z,2.10
2022-12-25T00:32:38.374Z,2.20
2022-12-25T00:32:48.935Z,2.20
2022-12-25T00:32:59.914Z,2.20
2022-12-25T00:33:10.678Z,2.10
2022-12-25T00:33:21.769Z,2.00
2022-12-25T00:33:32.745Z,2.00
2022-12-25T00:33:43.542Z,1.90
2022-12-25T00:33:54.618Z,1.80
2022-12-25T00:34:05.603Z,1.80
2022-12-25T00:34:16.388Z,1.80
2022-12-25T00:34:27.453Z,2.10
2022-12-25T00:34:38.447Z,2.00
2022-12-25T00:34:49.241Z,2.00
2022-12-25T00:35:00.300Z,2.10
2022-12-25T00:35:11.306Z,2.20
2022-12-25T00:35:22.082Z,2.10
2022-12-25T00:35:33.167Z,2.20
2022-12-25T00:35:44.154Z,2.10
2022-12-25T00:35:54.933Z,2.10
2022-12-25T00:36:06.030Z,2.00
2022-12-25T00:36:17.006Z,2.00
2022-12-25T00:36:27.792Z,2.20
2022-12-25T00:36:41.979Z,2.20
2022-12-25T00:36:49.528Z,2.20
2022-12-25T00:37:00.316Z,2.20
2022-12-25T00:37:11.399Z,2.30
2022-12-25T00:37:22.381Z,2.20
2022-12-25T00:37:33.166Z,2.10
2022-12-25T00:37:44.227Z,2.00
2022-12-25T00:37:55.235Z,2.20
2022-12-25T00:38:06.038Z,2.20
2022-12-25T00:38:17.118Z,2.20
2022-12-25T00:38:28.103Z,2.00
2022-12-25T00:38:38.909Z,1.90
2022-12-25T00:38:49.628Z,1.80
2022-12-25T00:39:00.630Z,1.80
2022-12-25T00:39:11.419Z,1.90
2022-12-25T00:39:21.947Z,1.70
2022-12-25T00:39:32.924Z,1.80
2022-12-25T00:39:43.718Z,1.80
2022-12-25T00:39:54.791Z,1.80
2022-12-25T00:40:05.781Z,1.80
2022-12-25T00:40:16.564Z,1.90
2022-12-25T00:40:27.640Z,2.00
2022-12-25T00:40:38.627Z,1.90
2022-12-25T00:40:49.429Z,1.90
2022-12-25T00:41:00.511Z,1.90
2022-12-25T00:41:11.492Z,1.90
2022-12-25T00:41:22.279Z,1.80
2022-12-25T00:41:33.348Z,1.80
2022-12-25T00:41:44.352Z,1.90
2022-12-25T00:41:55.133Z,1.90
2022-12-25T00:42:06.182Z,1.80
2022-12-25T00:42:17.196Z,1.70
2022-12-25T00:42:27.979Z,1.80
2022-12-25T00:42:39.054Z,1.80
2022-12-25T00:42:50.035Z,1.70
2022-12-25T00:43:00.853Z,1.70
2022-12-25T00:43:11.417Z,1.70
2022-12-25T00:43:22.395Z,1.70
2022-12-25T00:43:33.194Z,1.60
2022-12-25T00:43:44.239Z,1.60
2022-12-25T00:43:55.227Z,1.70
2022-12-25T00:44:06.013Z,1.60
2022-12-25T00:44:17.084Z,1.60
2022-12-25T00:44:28.068Z,1.60
2022-12-25T00:44:38.858Z,1.70
2022-12-25T00:44:49.931Z,1.60
2022-12-25T00:45:00.926Z,1.80
2022-12-25T00:45:11.694Z,1.80
2022-12-25T00:45:22.815Z,1.80
2022-12-25T00:45:33.825Z,1.70
2022-12-25T00:45:44.618Z,1.70
2022-12-25T00:45:55.708Z,1.70
2022-12-25T00:46:06.807Z,1.60
2022-12-25T00:46:17.839Z,1.50
2022-12-25T00:46:28.475Z,1.50
2022-12-25T00:46:39.467Z,1.90
2022-12-25T00:46:50.280Z,1.80
2022-12-25T00:47:00.848Z,1.70
2022-12-25T00:47:11.849Z,1.40
2022-12-25T00:47:22.752Z,1.50
2022-12-25T00:47:33.296Z,1.60
2022-12-25T00:47:44.289Z,1.60
2022-12-25T00:47:55.072Z,1.70
2022-12-25T00:48:06.155Z,1.70
2022-12-25T00:48:17.162Z,1.60
2022-12-25T00:48:27.931Z,1.40
2022-12-25T00:48:39.015Z,1.50
2022-12-25T00:48:49.987Z,1.60
2022-12-25T00:49:00.784Z,1.80
2022-12-25T00:49:11.853Z,1.70
2022-12-25T00:49:22.835Z,1.80
2022-12-25T00:49:33.622Z,1.70
2022-12-25T00:49:44.693Z,1.60
2022-12-25T00:49:55.677Z,1.50
2022-12-25T00:50:06.504Z,1.40
2022-12-25T00:50:17.560Z,1.50
2022-12-25T00:50:28.532Z,1.50
2022-12-25T00:50:39.321Z,1.60
2022-12-25T00:50:50.383Z,1.60
2022-12-25T00:51:01.392Z,1.70
2022-12-25T00:51:12.174Z,1.60
2022-12-25T00:51:23.235Z,1.60
2022-12-25T00:51:34.249Z,1.70
2022-12-25T00:51:45.011Z,1.60
2022-12-25T00:51:56.095Z,1.60
2022-12-25T00:52:07.072Z,1.50
2022-12-25T00:52:17.862Z,1.50
2022-12-25T00:52:28.948Z,1.40
2022-12-25T00:52:39.926Z,1.40
2022-12-25T00:52:50.736Z,1.70
2022-12-25T00:53:01.772Z,1.80
2022-12-25T00:53:12.796Z,1.80
2022-12-25T00:53:23.611Z,1.60
2022-12-25T00:53:34.662Z,1.70
2022-12-25T00:53:45.643Z,1.60
2022-12-25T00:53:56.431Z,1.60
2022-12-25T00:54:07.495Z,1.60
2022-12-25T00:54:18.475Z,1.70
2022-12-25T00:54:29.284Z,1.60
2022-12-25T00:54:40.345Z,1.70
2022-12-25T00:54:51.330Z,1.70
2022-12-25T00:55:02.126Z,1.80
2022-12-25T00:55:13.188Z,1.70
2022-12-25T00:55:24.186Z,1.70
2022-12-25T00:55:34.986Z,1.60
2022-12-25T00:55:46.054Z,1.60
2022-12-25T00:55:57.021Z,1.60
2022-12-25T00:56:07.831Z,1.70
2022-12-25T00:56:18.894Z,1.70
2022-12-25T00:56:29.880Z,1.80
2022-12-25T00:56:40.698Z,1.70
2022-12-25T00:56:51.752Z,1.70
2022-12-25T00:57:02.748Z,1.80
2022-12-25T00:57:13.529Z,1.80
2022-12-25T00:57:24.619Z,1.70
2022-12-25T00:57:35.637Z,1.60
2022-12-25T00:57:46.392Z,1.60
2022-12-25T00:57:57.465Z,1.70
2022-12-25T00:58:08.460Z,1.70
2022-12-25T00:58:19.270Z,1.70
2022-12-25T00:58:29.849Z,1.70
2022-12-25T00:58:40.856Z,1.70
2022-12-25T00:58:51.624Z,1.50
2022-12-25T00:59:02.685Z,1.60
2022-12-25T00:59:13.672Z,1.70
2022-12-25T00:59:24.483Z,1.70
2022-12-25T00:59:35.603Z,1.60
2022-12-25T00:59:46.553Z,1.60
2022-12-25T00:59:57.359Z,1.70
2022-12-25T01:00:08.422Z,1.80
2022-12-25T01:00:19.426Z,1.80
2022-12-25T01:00:30.209Z,1.70
2022-12-25T01:00:41.320Z,1.50
2022-12-25T01:00:52.362Z,1.50
2022-12-25T01:01:03.245Z,1.50
2022-12-25T01:01:13.851Z,1.60
2022-12-25T01:01:24.887Z,1.60
2022-12-25T01:01:35.855Z,1.60
2022-12-25T01:01:46.522Z,1.60
2022-12-25T01:01:57.086Z,1.70
2022-12-25T01:02:08.043Z,1.60
2022-12-25T01:02:18.709Z,1.50
2022-12-25T01:02:29.349Z,1.50
2022-12-25T01:02:40.376Z,1.60
2022-12-25T01:02:51.107Z,1.80
2022-12-25T01:03:01.788Z,1.80
2022-12-25T01:03:12.717Z,1.70
2022-12-25T01:03:23.338Z,1.70
2022-12-25T01:03:33.771Z,1.60
2022-12-25T01:03:44.569Z,1.50
2022-12-25T01:03:55.626Z,1.70
2022-12-25T01:04:06.618Z,1.80
2022-12-25T01:04:17.411Z,1.80
2022-12-25T01:04:28.473Z,1.70
2022-12-25T01:04:39.457Z,1.60
2022-12-25T01:04:50.258Z,1.50
2022-12-25T01:05:01.325Z,1.50
2022-12-25T01:05:12.310Z,1.50
2022-12-25T01:05:23.110Z,1.60
2022-12-25T01:05:34.168Z,1.60
2022-12-25T01:05:45.182Z,1.70
2022-12-25T01:05:55.947Z,1.70
2022-12-25T01:06:07.034Z,1.60
2022-12-25T01:06:18.009Z,1.70
2022-12-25T01:06:28.818Z,1.90
2022-12-25T01:06:39.873Z,1.80
2022-12-25T01:06:50.865Z,1.70
2022-12-25T01:07:01.691Z,1.70
2022-12-25T01:07:12.734Z,1.70
2022-12-25T01:07:23.732Z,1.70
2022-12-25T01:07:34.526Z,1.50
2022-12-25T01:07:45.587Z,1.60
2022-12-25T01:07:56.584Z,1.60
2022-12-25T01:08:07.375Z,1.70
2022-12-25T01:08:18.438Z,1.60
2022-12-25T01:08:29.451Z,1.50
2022-12-25T01:08:40.242Z,1.50
2022-12-25T01:08:51.320Z,1.50
2022-12-25T01:09:02.351Z,1.50
2022-12-25T01:09:13.145Z,1.60
2022-12-25T01:09:24.219Z,1.50
2022-12-25T01:09:35.209Z,1.40
2022-12-25T01:09:45.983Z,1.40
2022-12-25T01:09:57.074Z,1.50
2022-12-25T01:10:08.047Z,1.50
2022-12-25T01:10:18.853Z,1.50
2022-12-25T01:10:29.901Z,1.50
2022-12-25T01:10:40.879Z,1.50
2022-12-25T01:10:51.695Z,1.40
2022-12-25T01:11:02.749Z,1.40
2022-12-25T01:11:13.714Z,1.40
2022-12-25T01:11:24.506Z,1.40
2022-12-25T01:11:35.576Z,1.30
2022-12-25T01:11:46.583Z,1.40
2022-12-25T01:11:57.368Z,1.50
2022-12-25T01:12:08.428Z,1.40
2022-12-25T01:12:19.409Z,1.40
2022-12-25T01:12:30.196Z,1.30
2022-12-25T01:12:41.280Z,1.50
2022-12-25T01:12:52.265Z,1.60
2022-12-25T01:13:03.109Z,1.60
2022-12-25T01:13:14.160Z,1.50
2022-12-25T01:13:25.177Z,1.50
2022-12-25T01:13:35.985Z,1.50
2022-12-25T01:13:46.481Z,1.50
2022-12-25T01:13:57.472Z,1.60
2022-12-25T01:14:08.259Z,1.50
2022-12-25T01:14:19.321Z,1.50
2022-12-25T01:14:30.307Z,1.50
2022-12-25T01:14:41.117Z,1.40
2022-12-25T01:14:52.232Z,1.40
2022-12-25T01:15:03.162Z,1.40
2022-12-25T01:15:13.962Z,1.40
2022-12-25T01:15:25.017Z,1.50
2022-12-25T01:15:36.012Z,1.50
2022-12-25T01:15:46.800Z,1.50
2022-12-25T01:15:57.943Z,1.40
2022-12-25T01:16:08.982Z,1.50
2022-12-25T01:16:19.785Z,1.40
2022-12-25T01:16:30.382Z,1.40
2022-12-25T01:16:41.453Z,1.30
2022-12-25T01:16:52.358Z,1.30
2022-12-25T01:17:02.882Z,1.30
2022-12-25T01:17:13.850Z,1.30
2022-12-25T01:17:24.642Z,1.40
2022-12-25T01:17:35.714Z,1.40
2022-12-25T01:17:46.695Z,1.50
2022-12-25T01:17:57.499Z,1.50
2022-12-25T01:18:12.716Z,1.40
2022-12-25T01:18:19.556Z,1.30
2022-12-25T01:18:30.373Z,1.20
2022-12-25T01:18:41.466Z,1.10
2022-12-25T01:18:52.441Z,1.20
2022-12-25T01:19:03.214Z,1.10
2022-12-25T01:19:14.290Z,1.10
2022-12-25T01:19:25.270Z,1.20
2022-12-25T01:19:36.059Z,1.20
2022-12-25T01:19:47.150Z,1.20
2022-12-25T01:19:58.139Z,1.20
2022-12-25T01:20:08.904Z,1.30
2022-12-25T01:20:19.993Z,1.30
2022-12-25T01:20:30.964Z,1.30
2022-12-25T01:20:41.743Z,1.50
2022-12-25T01:20:52.833Z,1.30
2022-12-25T01:21:03.826Z,1.30
2022-12-25T01:21:14.600Z,1.30
2022-12-25T01:21:25.695Z,1.30
2022-12-25T01:21:36.659Z,1.40
2022-12-25T01:21:47.442Z,1.30
2022-12-25T01:21:58.523Z,1.30
2022-12-25T01:22:09.525Z,1.10
2022-12-25T01:22:20.318Z,1.20
2022-12-25T01:22:31.378Z,1.10
2022-12-25T01:22:42.365Z,1.10
2022-12-25T01:22:53.144Z,1.10
2022-12-25T01:23:04.261Z,1.10
2022-12-25T01:23:15.275Z,1.00
2022-12-25T01:23:26.070Z,1.00
2022-12-25T01:23:37.150Z,1.00
2022-12-25T01:23:48.187Z,1.20
2022-12-25T01:23:58.957Z,1.20
2022-12-25T01:24:10.033Z,1.30
2022-12-25T01:24:21.047Z,1.20
2022-12-25T01:24:31.831Z,1.10
2022-12-25T01:24:42.927Z,1.00
2022-12-25T01:24:53.896Z,1.00
2022-12-25T01:25:04.692Z,1.00
2022-12-25T01:25:15.754Z,1.00
2022-12-25T01:25:26.751Z,1.00
2022-12-25T01:25:37.547Z,1.00
2022-12-25T01:25:48.606Z,1.10
2022-12-25T01:25:59.613Z,1.10
2022-12-25T01:26:10.292Z,1.10
2022-12-25T01:26:21.351Z,1.10
2022-12-25T01:26:32.338Z,1.00
2022-12-25T01:26:43.127Z,1.00
2022-12-25T01:26:54.203Z,1.10
2022-12-25T01:27:05.164Z,1.20
2022-12-25T01:27:15.955Z,1.10
2022-12-25T01:27:27.033Z,1.00
2022-12-25T01:27:38.019Z,0.90
2022-12-25T01:27:48.819Z,0.90
2022-12-25T01:27:59.884Z,0.90
2022-12-25T01:28:10.907Z,0.90
2022-12-25T01:28:21.651Z,0.90
2022-12-25T01:28:32.733Z,0.90
2022-12-25T01:28:43.725Z,0.90
2022-12-25T01:28:54.552Z,1.00
2022-12-25T01:29:05.066Z,1.10
2022-12-25T01:29:16.062Z,1.20
2022-12-25T01:29:26.852Z,1.20
2022-12-25T01:29:37.948Z,1.20
2022-12-25T01:29:48.916Z,0.90
2022-12-25T01:29:59.708Z,0.80
2022-12-25T01:30:10.770Z,0.80
2022-12-25T01:30:21.743Z,0.80
2022-12-25T01:30:32.524Z,0.90
2022-12-25T01:30:43.600Z,0.90
2022-12-25T01:30:54.578Z,0.90
2022-12-25T01:31:05.398Z,0.90
2022-12-25T01:31:16.525Z,0.80
2022-12-25T01:31:27.492Z,0.90
2022-12-25T01:31:38.377Z,0.90
2022-12-25T01:31:48.924Z,0.90
2022-12-25T01:31:59.955Z,0.90
2022-12-25T01:32:10.761Z,0.80
2022-12-25T01:32:21.290Z,0.90
2022-12-25T01:32:32.267Z,1.00
2022-12-25T01:32:43.050Z,0.90
2022-12-25T01:32:54.132Z,0.80
2022-12-25T01:33:05.128Z,0.80
2022-12-25T01:33:15.904Z,0.80
2022-12-25T01:33:26.987Z,0.80
2022-12-25T01:33:37.969Z,0.90
2022-12-25T01:33:48.758Z,0.80
2022-12-25T01:33:59.889Z,0.70
2022-12-25T01:34:10.877Z,0.70
2022-12-25T01:34:21.658Z,0.80
2022-12-25T01:34:32.747Z,0.80
2022-12-25T01:34:43.707Z,0.90
2022-12-25T01:34:56.404Z,0.90
2022-12-25T01:35:05.407Z,0.80
2022-12-25T01:35:16.430Z,1.00
2022-12-25T01:35:27.213Z,1.00
2022-12-25T01:35:38.284Z,1.00
2022-12-25T01:35:49.279Z,0.70
2022-12-25T01:36:00.091Z,0.80
2022-12-25T01:36:10.611Z,0.80
2022-12-25T01:36:21.595Z,0.80
2022-12-25T01:36:32.438Z,0.80
2022-12-25T01:36:43.515Z,0.90
2022-12-25T01:36:54.459Z,0.80
2022-12-25T01:37:05.275Z,0.80
2022-12-25T01:37:15.808Z,0.90
2022-12-25T01:37:26.804Z,0.80
2022-12-25T01:37:37.581Z,0.70
2022-12-25T01:37:48.671Z,0.80
2022-12-25T01:37:59.663Z,0.80
2022-12-25T01:38:10.449Z,0.80
2022-12-25T01:38:21.570Z,0.80
2022-12-25T01:38:32.550Z,0.80
2022-12-25T01:38:43.342Z,0.70
2022-12-25T01:38:54.438Z,0.70
2022-12-25T01:39:05.426Z,0.70
2022-12-25T01:39:16.193Z,0.70
2022-12-25T01:39:27.295Z,0.70
2022-12-25T01:39:38.267Z,0.70
2022-12-25T01:39:49.070Z,0.70
2022-12-25T01:40:00.206Z,0.80
2022-12-25T01:40:10.655Z,0.70
2022-12-25T01:40:21.443Z,0.70
2022-12-25T01:40:32.531Z,0.80
2022-12-25T01:40:43.515Z,0.80
2022-12-25T01:40:54.293Z,0.80
2022-12-25T01:41:05.382Z,0.80
2022-12-25T01:41:16.364Z,0.80
2022-12-25T01:41:27.150Z,0.80
2022-12-25T01:41:38.222Z,0.80
2022-12-25T01:41:49.215Z,0.80
2022-12-25T01:42:00.009Z,0.80
2022-12-25T01:42:11.069Z,1.00
2022-12-25T01:42:22.061Z,1.10
2022-12-25T01:42:32.899Z,1.00
2022-12-25T01:42:43.928Z,0.70
2022-12-25T01:42:54.936Z,0.70
2022-12-25T01:43:05.708Z,0.70
2022-12-25T01:43:18.742Z,0.60
2022-12-25T01:43:27.644Z,0.50
2022-12-25T01:43:38.400Z,0.60
2022-12-25T01:43:49.472Z,0.60
2022-12-25T01:44:00.489Z,0.80
2022-12-25T01:44:11.268Z,0.80
2022-12-25T01:44:22.339Z,0.80
2022-12-25T01:44:33.328Z,0.70
2022-12-25T01:44:44.118Z,0.60
2022-12-25T01:44:55.185Z,0.60
2022-12-25T01:45:06.190Z,0.60
2022-12-25T01:45:16.960Z,0.60
2022-12-25T01:45:28.108Z,0.60
2022-12-25T01:45:39.222Z,0.70
2022-12-25T01:45:50.038Z,0.70
2022-12-25T01:46:00.676Z,0.70
2022-12-25T01:46:11.213Z,0.70
2022-12-25T01:46:22.019Z,0.70
2022-12-25T01:46:33.040Z,0.70
2022-12-25T01:46:44.048Z,0.70
2022-12-25T01:46:54.814Z,0.60
2022-12-25T01:47:05.941Z,0.60
2022-12-25T01:47:16.900Z,0.70
2022-12-25T01:47:27.673Z,0.80
2022-12-25T01:47:38.778Z,0.70
2022-12-25T01:47:49.749Z,0.70
2022-12-25T01:48:00.527Z,0.80
2022-12-25T01:48:11.602Z,0.80
2022-12-25T01:48:22.580Z,0.90
2022-12-25T01:48:33.380Z,0.80
2022-12-25T01:48:44.440Z,0.80
2022-12-25T01:48:55.438Z,0.60
2022-12-25T01:49:06.282Z,0.60
2022-12-25T01:49:17.361Z,0.60
2022-12-25T01:49:28.321Z,0.70
2022-12-25T01:49:39.141Z,0.60
2022-12-25T01:49:50.192Z,0.60
2022-12-25T01:50:01.176Z,0.60
2022-12-25T01:50:11.979Z,0.70
2022-12-25T01:50:23.044Z,0.60
2022-12-25T01:50:34.025Z,0.60
2022-12-25T01:50:44.808Z,0.50
2022-12-25T01:50:55.888Z,0.60
2022-12-25T01:51:06.901Z,0.70
2022-12-25T01:51:17.656Z,0.70
2022-12-25T01:51:28.738Z,0.80
2022-12-25T01:51:39.748Z,0.70
2022-12-25T01:51:50.527Z,0.60
2022-12-25T01:52:01.602Z,0.60
2022-12-25T01:52:12.608Z,0.60
2022-12-25T01:52:24.417Z,0.60
2022-12-25T01:52:34.013Z,0.50
2022-12-25T01:52:45.008Z,0.50
2022-12-25T01:52:55.782Z,0.50
2022-12-25T01:53:06.855Z,0.50
2022-12-25T01:53:17.832Z,0.60
2022-12-25T01:53:28.639Z,0.50
2022-12-25T01:53:39.691Z,0.50
2022-12-25T01:53:50.677Z,0.50
2022-12-25T01:54:01.481Z,0.60
2022-12-25T01:54:12.541Z,0.60
2022-12-25T01:54:23.543Z,0.70
2022-12-25T01:54:34.332Z,0.60
2022-12-25T01:54:45.431Z,0.60
2022-12-25T01:54:56.418Z,0.50
2022-12-25T01:55:07.181Z,0.60
2022-12-25T01:55:18.234Z,0.70
2022-12-25T01:55:29.219Z,0.70
2022-12-25T01:55:40.033Z,0.70
2022-12-25T01:55:51.141Z,0.60
2022-12-25T01:56:02.084Z,0.70
2022-12-25T01:56:12.858Z,0.70
2022-12-25T01:56:23.923Z,0.70
2022-12-25T01:56:34.921Z,0.70
2022-12-25T01:56:45.698Z,0.70
2022-12-25T01:56:56.802Z,0.70
2022-12-25T01:57:07.780Z,0.50
2022-12-25T01:57:18.576Z,0.50
2022-12-25T01:57:29.659Z,0.50
2022-12-25T01:57:40.645Z,0.70
2022-12-25T01:57:51.447Z,0.60
2022-12-25T01:58:02.511Z,0.60
2022-12-25T01:58:13.495Z,0.60
2022-12-25T01:58:24.271Z,0.60
2022-12-25T01:58:35.336Z,0.60
2022-12-25T01:58:46.327Z,0.70
2022-12-25T01:58:57.125Z,0.70
2022-12-25T01:59:08.185Z,0.70
2022-12-25T01:59:19.174Z,0.70
2022-12-25T01:59:29.991Z,0.60
2022-12-25T01:59:40.525Z,0.60
2022-12-25T01:59:51.508Z,0.70
2022-12-25T02:00:02.285Z,0.70
2022-12-25T02:00:13.372Z,0.60
2022-12-25T02:00:24.359Z,0.60
2022-12-25T02:00:35.293Z,0.50
2022-12-25T02:00:45.902Z,0.60
2022-12-25T02:00:56.892Z,0.60
2022-12-25T02:01:07.747Z,0.60
2022-12-25T02:01:18.413Z,0.60
2022-12-25T02:01:29.033Z,0.60
2022-12-25T02:01:39.983Z,0.60
2022-12-25T02:01:50.620Z,0.60
2022-12-25T02:02:01.328Z,0.70
2022-12-25T02:02:12.269Z,0.60
2022-12-25T02:02:23.044Z,0.60
2022-12-25T02:02:33.694Z,0.60
2022-12-25T02:02:44.739Z,0.70
2022-12-25T02:02:55.616Z,0.70
2022-12-25T02:03:06.196Z,0.60
2022-12-25T02:03:17.038Z,0.60
2022-12-25T02:03:27.706Z,0.50
2022-12-25T02:03:38.133Z,0.50
2022-12-25T02:03:48.930Z,0.50
2022-12-25T02:04:00.004Z,0.60
2022-12-25T02:04:10.684Z,0.60
2022-12-25T02:04:21.473Z,0.60
2022-12-25T02:04:32.569Z,0.60
2022-12-25T02:04:43.543Z,0.50
2022-12-25T02:04:54.326Z,0.60
2022-12-25T02:05:05.395Z,0.60
2022-12-25T02:05:16.404Z,0.60
2022-12-25T02:05:27.200Z,0.60
2022-12-25T02:05:38.255Z,0.70
2022-12-25T02:05:49.279Z,0.70
2022-12-25T02:06:00.070Z,0.70
2022-12-25T02:06:11.119Z,0.70
2022-12-25T02:06:22.119Z,0.70
2022-12-25T02:06:32.894Z,0.60
2022-12-25T02:06:43.971Z,0.70
2022-12-25T02:06:54.965Z,0.60
2022-12-25T02:07:05.764Z,0.70
2022-12-25T02:07:16.861Z,0.70
2022-12-25T02:07:27.815Z,0.60
2022-12-25T02:07:38.609Z,0.60
2022-12-25T02:07:49.674Z,0.60
2022-12-25T02:08:00.655Z,0.60
2022-12-25T02:08:11.448Z,0.50
2022-12-25T02:08:22.547Z,0.60
2022-12-25T02:08:33.519Z,0.50
2022-12-25T02:08:44.315Z,0.60
2022-12-25T02:08:55.371Z,0.60
2022-12-25T02:09:06.364Z,0.70
2022-12-25T02:09:17.139Z,0.60
2022-12-25T02:09:28.199Z,0.70
2022-12-25T02:09:39.207Z,0.60
2022-12-25T02:09:50.021Z,0.60
2022-12-25T02:10:01.079Z,0.60
2022-12-25T02:10:12.058Z,0.70
2022-12-25T02:10:22.830Z,0.60
2022-12-25T02:10:33.899Z,0.60
2022-12-25T02:10:44.930Z,0.70
2022-12-25T02:10:55.676Z,0.70
2022-12-25T02:11:06.759Z,0.70
2022-12-25T02:11:17.743Z,0.60
2022-12-25T02:11:28.537Z,0.60
2022-12-25T02:11:39.597Z,0.50
2022-12-25T02:11:50.627Z,0.40
2022-12-25T02:12:01.402Z,0.40
2022-12-25T02:12:12.458Z,0.40
2022-12-25T02:12:23.449Z,0.60
2022-12-25T02:12:34.245Z,0.60
2022-12-25T02:12:45.310Z,0.80
2022-12-25T02:12:56.299Z,0.80
2022-12-25T02:13:07.093Z,0.70
2022-12-25T02:13:18.151Z,0.70
2022-12-25T02:13:29.145Z,0.60
2022-12-25T02:13:39.939Z,0.60
2022-12-25T02:13:51.003Z,0.60
2022-12-25T02:14:01.997Z,0.60
2022-12-25T02:14:12.782Z,0.60
2022-12-25T02:14:23.865Z,0.60
2022-12-25T02:14:34.843Z,0.50
2022-12-25T02:14:45.657Z,0.60
2022-12-25T02:14:59.764Z,0.70
2022-12-25T02:15:08.203Z,0.70
2022-12-25T02:15:17.852Z,0.60
2022-12-25T02:15:28.921Z,0.60
2022-12-25T02:15:39.890Z,0.60
2022-12-25T02:15:50.673Z,0.60
2022-12-25T02:16:01.825Z,0.60
2022-12-25T02:16:12.821Z,0.50
2022-12-25T02:16:23.598Z,0.60
2022-12-25T02:16:34.713Z,0.70
2022-12-25T02:16:57.715Z,0.70
2022-12-25T02:16:58.977Z,0.70
2022-12-25T02:17:07.478Z,0.70
2022-12-25T02:17:18.070Z,0.60
2022-12-25T02:17:28.891Z,0.60
2022-12-25T02:17:39.402Z,0.60
2022-12-25T02:17:50.383Z,0.60
2022-12-25T02:18:01.174Z,0.60
2022-12-25T02:18:12.231Z,0.50
2022-12-25T02:18:23.227Z,0.50
2022-12-25T02:18:34.018Z,0.50
2022-12-25T02:18:45.119Z,0.50
2022-12-25T02:18:56.124Z,0.60
2022-12-25T02:19:06.920Z,0.60
2022-12-25T02:19:17.978Z,0.60
2022-12-25T02:19:29.012Z,0.60
2022-12-25T02:19:39.790Z,0.70
2022-12-25T02:19:50.897Z,0.60
2022-12-25T02:20:01.883Z,0.60
2022-12-25T02:20:12.670Z,0.60
2022-12-25T02:20:23.742Z,0.50
2022-12-25T02:20:34.724Z,0.60
2022-12-25T02:20:45.524Z,0.50
2022-12-25T02:20:56.577Z,0.40
2022-12-25T02:21:07.581Z,0.40
2022-12-25T02:21:18.360Z,0.50
2022-12-25T02:21:29.447Z,0.40
2022-12-25T02:21:40.485Z,0.40
2022-12-25T02:21:51.214Z,0.50
2022-12-25T02:22:02.283Z,0.60
2022-12-25T02:22:13.303Z,0.70
2022-12-25T02:22:24.065Z,0.70
2022-12-25T02:22:35.151Z,0.70
2022-12-25T02:22:46.117Z,0.60
2022-12-25T02:22:56.900Z,0.50
2022-12-25T02:23:08.001Z,0.50
2022-12-25T02:23:18.962Z,0.50
2022-12-25T02:23:29.779Z,0.50
2022-12-25T02:23:40.853Z,0.50
2022-12-25T02:23:51.844Z,0.50
2022-12-25T02:24:02.621Z,0.60
2022-12-25T02:24:13.691Z,0.60
2022-12-25T02:24:24.724Z,0.70
2022-12-25T02:24:35.471Z,0.50
2022-12-25T02:24:46.534Z,0.50
2022-12-25T02:24:57.568Z,0.50
2022-12-25T02:25:08.394Z,0.60
2022-12-25T02:25:19.435Z,0.50